sensor_id;sensor_type;location;lat;lon;timestamp;P1;durP1;ratioP1;P2;durP2;ratioP2
34920;SDS011;21128;50.016;20.002;2023-06-19T00:00:36;13.70;;;8.67;;
34920;SDS011;21128;50.016;20.002;2023-06-19T00:03:24;10.83;;;7.73;;
34920;SDS011;21128;50.016;20.002;2023-06-19T00:05:50;9.78;;;7.62;;
34920;SDS011;21128;50.016;20.002;2023-06-19T00:08:17;12.27;;;7.87;;
34920;SDS011;21128;50.016;20.002;2023-06-19T00:10:44;7.95;;;7.15;;
34920;SDS011;21128;50.016;20.002;2023-06-19T00:13:11;10.30;;;7.90;;
34920;SDS011;21128;50.016;20.002;2023-06-19T00:15:38;15.63;;;7.70;;
34920;SDS011;21128;50.016;20.002;2023-06-19T00:18:05;10.45;;;7.33;;
34920;SDS011;21128;50.016;20.002;2023-06-19T00:20:33;9.63;;;8.07;;
34920;SDS011;21128;50.016;20.002;2023-06-19T00:23:02;14.50;;;8.17;;
34920;SDS011;21128;50.016;20.002;2023-06-19T00:25:28;10.98;;;7.70;;
34920;SDS011;21128;50.016;20.002;2023-06-19T00:27:55;12.90;;;8.03;;
34920;SDS011;21128;50.016;20.002;2023-06-19T00:30:22;12.17;;;7.90;;
34920;SDS011;21128;50.016;20.002;2023-06-19T00:32:49;8.50;;;7.60;;
34920;SDS011;21128;50.016;20.002;2023-06-19T00:35:19;10.40;;;7.23;;
34920;SDS011;21128;50.016;20.002;2023-06-19T00:37:48;11.60;;;8.00;;
34920;SDS011;21128;50.016;20.002;2023-06-19T00:40:16;13.47;;;7.60;;
34920;SDS011;21128;50.016;20.002;2023-06-19T00:42:53;9.90;;;8.30;;
34920;SDS011;21128;50.016;20.002;2023-06-19T00:45:21;10.30;;;8.05;;
34920;SDS011;21128;50.016;20.002;2023-06-19T00:47:48;11.90;;;8.43;;
34920;SDS011;21128;50.016;20.002;2023-06-19T00:50:15;10.27;;;8.13;;
34920;SDS011;21128;50.016;20.002;2023-06-19T00:52:42;9.80;;;7.80;;
34920;SDS011;21128;50.016;20.002;2023-06-19T00:55:09;10.90;;;8.40;;
34920;SDS011;21128;50.016;20.002;2023-06-19T00:57:37;10.00;;;7.08;;
34920;SDS011;21128;50.016;20.002;2023-06-19T01:00:06;11.40;;;7.67;;
34920;SDS011;21128;50.016;20.002;2023-06-19T01:02:34;10.73;;;7.83;;
34920;SDS011;21128;50.016;20.002;2023-06-19T01:05:02;11.17;;;7.27;;
34920;SDS011;21128;50.016;20.002;2023-06-19T01:07:37;8.77;;;7.07;;
34920;SDS011;21128;50.016;20.002;2023-06-19T01:10:33;12.60;;;8.00;;
34920;SDS011;21128;50.016;20.002;2023-06-19T01:13:22;10.10;;;8.20;;
34920;SDS011;21128;50.016;20.002;2023-06-19T01:15:55;11.13;;;8.50;;
34920;SDS011;21128;50.016;20.002;2023-06-19T01:18:24;9.70;;;8.10;;
34920;SDS011;21128;50.016;20.002;2023-06-19T01:20:53;9.90;;;7.53;;
34920;SDS011;21128;50.016;20.002;2023-06-19T01:23:20;10.90;;;8.30;;
34920;SDS011;21128;50.016;20.002;2023-06-19T01:25:47;9.00;;;7.37;;
34920;SDS011;21128;50.016;20.002;2023-06-19T01:28:14;11.03;;;7.60;;
34920;SDS011;21128;50.016;20.002;2023-06-19T01:30:41;10.20;;;7.97;;
34920;SDS011;21128;50.016;20.002;2023-06-19T01:33:11;8.67;;;6.83;;
34920;SDS011;21128;50.016;20.002;2023-06-19T01:35:43;9.50;;;8.00;;
34920;SDS011;21128;50.016;20.002;2023-06-19T01:38:12;10.45;;;7.65;;
34920;SDS011;21128;50.016;20.002;2023-06-19T01:40:41;8.23;;;7.33;;
34920;SDS011;21128;50.016;20.002;2023-06-19T01:43:08;9.77;;;8.37;;
34920;SDS011;21128;50.016;20.002;2023-06-19T01:45:36;11.53;;;8.57;;
34920;SDS011;21128;50.016;20.002;2023-06-19T01:48:04;14.07;;;8.33;;
34920;SDS011;21128;50.016;20.002;2023-06-19T01:50:31;13.87;;;7.97;;
34920;SDS011;21128;50.016;20.002;2023-06-19T01:52:57;11.55;;;7.45;;
34920;SDS011;21128;50.016;20.002;2023-06-19T01:55:24;9.97;;;7.63;;
34920;SDS011;21128;50.016;20.002;2023-06-19T01:57:52;10.93;;;7.90;;
34920;SDS011;21128;50.016;20.002;2023-06-19T02:00:19;11.10;;;7.87;;
34920;SDS011;21128;50.016;20.002;2023-06-19T02:02:46;10.20;;;7.73;;
34920;SDS011;21128;50.016;20.002;2023-06-19T02:05:13;10.50;;;7.17;;
34920;SDS011;21128;50.016;20.002;2023-06-19T02:07:41;10.65;;;8.75;;
34920;SDS011;21128;50.016;20.002;2023-06-19T02:10:08;9.70;;;8.70;;
34920;SDS011;21128;50.016;20.002;2023-06-19T02:12:36;10.53;;;8.80;;
34920;SDS011;21128;50.016;20.002;2023-06-19T02:15:03;12.77;;;7.63;;
34920;SDS011;21128;50.016;20.002;2023-06-19T02:17:31;12.93;;;7.93;;
34920;SDS011;21128;50.016;20.002;2023-06-19T02:19:58;11.33;;;7.67;;
34920;SDS011;21128;50.016;20.002;2023-06-19T02:22:25;9.80;;;8.23;;
34920;SDS011;21128;50.016;20.002;2023-06-19T02:24:52;11.40;;;8.20;;
34920;SDS011;21128;50.016;20.002;2023-06-19T02:27:18;11.90;;;8.37;;
34920;SDS011;21128;50.016;20.002;2023-06-19T02:29:45;10.20;;;7.92;;
34920;SDS011;21128;50.016;20.002;2023-06-19T02:32:12;13.57;;;8.00;;
34920;SDS011;21128;50.016;20.002;2023-06-19T02:34:39;11.85;;;8.15;;
34920;SDS011;21128;50.016;20.002;2023-06-19T02:37:06;12.90;;;8.67;;
34920;SDS011;21128;50.016;20.002;2023-06-19T02:39:34;12.53;;;9.27;;
34920;SDS011;21128;50.016;20.002;2023-06-19T02:42:01;12.23;;;8.83;;
34920;SDS011;21128;50.016;20.002;2023-06-19T02:44:29;14.23;;;9.30;;
34920;SDS011;21128;50.016;20.002;2023-06-19T02:46:56;11.37;;;8.70;;
34920;SDS011;21128;50.016;20.002;2023-06-19T02:49:22;12.40;;;8.73;;
34920;SDS011;21128;50.016;20.002;2023-06-19T02:51:49;16.65;;;9.45;;
34920;SDS011;21128;50.016;20.002;2023-06-19T02:54:16;15.80;;;9.57;;
34920;SDS011;21128;50.016;20.002;2023-06-19T02:56:43;12.18;;;8.73;;
34920;SDS011;21128;50.016;20.002;2023-06-19T02:59:10;9.93;;;7.90;;
34920;SDS011;21128;50.016;20.002;2023-06-19T03:01:37;22.02;;;17.15;;
34920;SDS011;21128;50.016;20.002;2023-06-19T03:04:04;22.90;;;13.60;;
34920;SDS011;21128;50.016;20.002;2023-06-19T03:06:31;20.05;;;10.20;;
34920;SDS011;21128;50.016;20.002;2023-06-19T03:08:59;12.23;;;8.47;;
34920;SDS011;21128;50.016;20.002;2023-06-19T03:11:27;10.10;;;8.45;;
34920;SDS011;21128;50.016;20.002;2023-06-19T03:13:56;11.50;;;8.53;;
34920;SDS011;21128;50.016;20.002;2023-06-19T03:16:23;14.17;;;8.83;;
34920;SDS011;21128;50.016;20.002;2023-06-19T03:18:50;13.47;;;9.07;;
34920;SDS011;21128;50.016;20.002;2023-06-19T03:21:17;19.10;;;8.70;;
34920;SDS011;21128;50.016;20.002;2023-06-19T03:23:46;10.63;;;8.90;;
34920;SDS011;21128;50.016;20.002;2023-06-19T03:26:13;18.90;;;8.33;;
34920;SDS011;21128;50.016;20.002;2023-06-19T03:28:41;12.77;;;9.00;;
34920;SDS011;21128;50.016;20.002;2023-06-19T03:31:08;10.60;;;7.95;;
34920;SDS011;21128;50.016;20.002;2023-06-19T03:33:35;22.27;;;14.93;;
34920;SDS011;21128;50.016;20.002;2023-06-19T03:36:02;22.57;;;15.83;;
34920;SDS011;21128;50.016;20.002;2023-06-19T03:38:30;13.30;;;9.78;;
34920;SDS011;21128;50.016;20.002;2023-06-19T03:40:56;10.67;;;8.67;;
34920;SDS011;21128;50.016;20.002;2023-06-19T03:43:23;10.63;;;9.53;;
34920;SDS011;21128;50.016;20.002;2023-06-19T03:45:50;17.67;;;11.67;;
34920;SDS011;21128;50.016;20.002;2023-06-19T03:48:17;14.65;;;11.45;;
34920;SDS011;21128;50.016;20.002;2023-06-19T03:50:44;18.03;;;10.63;;
34920;SDS011;21128;50.016;20.002;2023-06-19T03:53:11;16.47;;;9.50;;
34920;SDS011;21128;50.016;20.002;2023-06-19T03:55:38;16.37;;;10.00;;
34920;SDS011;21128;50.016;20.002;2023-06-19T03:58:05;14.50;;;9.75;;
34920;SDS011;21128;50.016;20.002;2023-06-19T04:00:32;13.95;;;9.45;;
34920;SDS011;21128;50.016;20.002;2023-06-19T04:02:59;13.77;;;9.33;;
34920;SDS011;21128;50.016;20.002;2023-06-19T04:05:26;13.70;;;8.97;;
34920;SDS011;21128;50.016;20.002;2023-06-19T04:07:53;9.93;;;8.58;;
34920;SDS011;21128;50.016;20.002;2023-06-19T04:10:20;11.13;;;8.63;;
34920;SDS011;21128;50.016;20.002;2023-06-19T04:12:47;11.83;;;9.10;;
34920;SDS011;21128;50.016;20.002;2023-06-19T04:15:14;15.93;;;9.20;;
34920;SDS011;21128;50.016;20.002;2023-06-19T04:17:41;19.40;;;9.93;;
34920;SDS011;21128;50.016;20.002;2023-06-19T04:20:08;13.83;;;9.43;;
34920;SDS011;21128;50.016;20.002;2023-06-19T04:22:39;18.20;;;10.03;;
34920;SDS011;21128;50.016;20.002;2023-06-19T04:25:07;12.40;;;9.37;;
34920;SDS011;21128;50.016;20.002;2023-06-19T04:27:37;15.63;;;9.97;;
34920;SDS011;21128;50.016;20.002;2023-06-19T04:30:04;16.75;;;10.18;;
34920;SDS011;21128;50.016;20.002;2023-06-19T04:32:33;16.03;;;10.43;;
34920;SDS011;21128;50.016;20.002;2023-06-19T04:35:01;17.13;;;10.73;;
34920;SDS011;21128;50.016;20.002;2023-06-19T04:37:29;15.00;;;10.57;;
34920;SDS011;21128;50.016;20.002;2023-06-19T04:39:55;23.52;;;10.82;;
34920;SDS011;21128;50.016;20.002;2023-06-19T04:42:22;21.83;;;9.33;;
34920;SDS011;21128;50.016;20.002;2023-06-19T04:44:49;13.70;;;9.85;;
34920;SDS011;21128;50.016;20.002;2023-06-19T04:47:18;14.85;;;9.35;;
34920;SDS011;21128;50.016;20.002;2023-06-19T04:49:46;18.85;;;9.15;;
34920;SDS011;21128;50.016;20.002;2023-06-19T04:52:13;17.92;;;10.28;;
34920;SDS011;21128;50.016;20.002;2023-06-19T04:54:40;21.40;;;10.87;;
34920;SDS011;21128;50.016;20.002;2023-06-19T04:57:07;19.62;;;10.70;;
34920;SDS011;21128;50.016;20.002;2023-06-19T04:59:34;19.03;;;10.27;;
34920;SDS011;21128;50.016;20.002;2023-06-19T05:02:01;14.95;;;10.10;;
34920;SDS011;21128;50.016;20.002;2023-06-19T05:04:28;15.73;;;9.77;;
34920;SDS011;21128;50.016;20.002;2023-06-19T05:06:59;19.07;;;10.33;;
34920;SDS011;21128;50.016;20.002;2023-06-19T05:09:26;16.70;;;9.97;;
34920;SDS011;21128;50.016;20.002;2023-06-19T05:11:53;22.23;;;10.80;;
34920;SDS011;21128;50.016;20.002;2023-06-19T05:14:20;15.03;;;9.83;;
34920;SDS011;21128;50.016;20.002;2023-06-19T05:16:47;10.80;;;9.45;;
34920;SDS011;21128;50.016;20.002;2023-06-19T05:19:14;12.73;;;8.47;;
34920;SDS011;21128;50.016;20.002;2023-06-19T05:21:41;13.10;;;8.80;;
34920;SDS011;21128;50.016;20.002;2023-06-19T05:24:08;14.77;;;8.50;;
34920;SDS011;21128;50.016;20.002;2023-06-19T05:26:35;10.82;;;8.88;;
34920;SDS011;21128;50.016;20.002;2023-06-19T05:29:02;18.00;;;9.10;;
34920;SDS011;21128;50.016;20.002;2023-06-19T05:31:29;13.45;;;8.95;;
34920;SDS011;21128;50.016;20.002;2023-06-19T05:33:56;13.15;;;9.30;;
34920;SDS011;21128;50.016;20.002;2023-06-19T05:36:25;13.07;;;8.83;;
34920;SDS011;21128;50.016;20.002;2023-06-19T05:38:52;17.05;;;8.35;;
34920;SDS011;21128;50.016;20.002;2023-06-19T05:41:19;17.10;;;9.13;;
34920;SDS011;21128;50.016;20.002;2023-06-19T05:43:46;14.63;;;8.83;;
34920;SDS011;21128;50.016;20.002;2023-06-19T05:46:13;9.35;;;7.95;;
34920;SDS011;21128;50.016;20.002;2023-06-19T05:48:40;12.28;;;8.30;;
34920;SDS011;21128;50.016;20.002;2023-06-19T05:51:07;12.50;;;8.27;;
34920;SDS011;21128;50.016;20.002;2023-06-19T05:53:34;11.47;;;8.80;;
34920;SDS011;21128;50.016;20.002;2023-06-19T05:56:01;15.70;;;8.83;;
34920;SDS011;21128;50.016;20.002;2023-06-19T05:58:28;15.07;;;8.73;;
34920;SDS011;21128;50.016;20.002;2023-06-19T06:00:55;10.60;;;8.20;;
34920;SDS011;21128;50.016;20.002;2023-06-19T06:03:24;10.80;;;8.10;;
34920;SDS011;21128;50.016;20.002;2023-06-19T06:05:52;9.23;;;8.03;;
34920;SDS011;21128;50.016;20.002;2023-06-19T06:08:19;14.10;;;8.00;;
34920;SDS011;21128;50.016;20.002;2023-06-19T06:10:46;16.95;;;8.00;;
34920;SDS011;21128;50.016;20.002;2023-06-19T06:13:13;11.27;;;7.87;;
34920;SDS011;21128;50.016;20.002;2023-06-19T06:15:40;10.10;;;7.30;;
34920;SDS011;21128;50.016;20.002;2023-06-19T06:18:07;9.10;;;6.92;;
34920;SDS011;21128;50.016;20.002;2023-06-19T06:20:34;14.13;;;7.83;;
34920;SDS011;21128;50.016;20.002;2023-06-19T06:23:01;9.28;;;6.42;;
34920;SDS011;21128;50.016;20.002;2023-06-19T06:25:28;13.20;;;6.73;;
34920;SDS011;21128;50.016;20.002;2023-06-19T06:27:55;10.20;;;6.80;;
34920;SDS011;21128;50.016;20.002;2023-06-19T06:30:22;13.20;;;6.80;;
34920;SDS011;21128;50.016;20.002;2023-06-19T06:32:50;10.57;;;6.63;;
34920;SDS011;21128;50.016;20.002;2023-06-19T06:35:17;11.70;;;6.73;;
34920;SDS011;21128;50.016;20.002;2023-06-19T06:37:44;13.87;;;6.93;;
34920;SDS011;21128;50.016;20.002;2023-06-19T06:40:12;10.77;;;8.00;;
34920;SDS011;21128;50.016;20.002;2023-06-19T06:42:40;13.97;;;7.30;;
34920;SDS011;21128;50.016;20.002;2023-06-19T06:45:07;12.77;;;6.43;;
34920;SDS011;21128;50.016;20.002;2023-06-19T06:47:35;8.65;;;6.80;;
34920;SDS011;21128;50.016;20.002;2023-06-19T06:50:02;11.33;;;6.27;;
34920;SDS011;21128;50.016;20.002;2023-06-19T06:52:30;8.70;;;5.70;;
34920;SDS011;21128;50.016;20.002;2023-06-19T06:54:57;9.90;;;6.70;;
34920;SDS011;21128;50.016;20.002;2023-06-19T06:57:24;7.80;;;5.77;;
34920;SDS011;21128;50.016;20.002;2023-06-19T06:59:51;10.65;;;5.85;;
34920;SDS011;21128;50.016;20.002;2023-06-19T07:02:18;12.07;;;6.90;;
34920;SDS011;21128;50.016;20.002;2023-06-19T07:04:45;9.93;;;6.80;;
34920;SDS011;21128;50.016;20.002;2023-06-19T07:07:12;9.30;;;6.03;;
34920;SDS011;21128;50.016;20.002;2023-06-19T07:09:39;9.85;;;6.10;;
34920;SDS011;21128;50.016;20.002;2023-06-19T07:12:06;13.97;;;6.23;;
34920;SDS011;21128;50.016;20.002;2023-06-19T07:14:34;7.13;;;6.03;;
34920;SDS011;21128;50.016;20.002;2023-06-19T07:17:01;8.53;;;6.53;;
34920;SDS011;21128;50.016;20.002;2023-06-19T07:19:28;5.93;;;5.33;;
34920;SDS011;21128;50.016;20.002;2023-06-19T07:21:56;13.63;;;6.13;;
34920;SDS011;21128;50.016;20.002;2023-06-19T07:24:23;10.00;;;6.83;;
34920;SDS011;21128;50.016;20.002;2023-06-19T07:26:50;10.30;;;6.83;;
34920;SDS011;21128;50.016;20.002;2023-06-19T07:29:19;8.07;;;6.50;;
34920;SDS011;21128;50.016;20.002;2023-06-19T07:31:48;9.60;;;5.83;;
34920;SDS011;21128;50.016;20.002;2023-06-19T07:34:15;10.57;;;5.80;;
34920;SDS011;21128;50.016;20.002;2023-06-19T07:36:42;8.15;;;6.00;;
34920;SDS011;21128;50.016;20.002;2023-06-19T07:39:09;7.97;;;6.33;;
34920;SDS011;21128;50.016;20.002;2023-06-19T07:41:36;9.93;;;5.93;;
34920;SDS011;21128;50.016;20.002;2023-06-19T07:44:03;10.87;;;6.23;;
34920;SDS011;21128;50.016;20.002;2023-06-19T07:46:31;12.50;;;6.53;;
34920;SDS011;21128;50.016;20.002;2023-06-19T07:48:57;10.97;;;6.60;;
34920;SDS011;21128;50.016;20.002;2023-06-19T07:51:24;10.68;;;6.03;;
34920;SDS011;21128;50.016;20.002;2023-06-19T07:53:51;13.93;;;7.00;;
34920;SDS011;21128;50.016;20.002;2023-06-19T07:56:18;28.47;;;7.73;;
34920;SDS011;21128;50.016;20.002;2023-06-19T07:58:46;18.43;;;7.33;;
34920;SDS011;21128;50.016;20.002;2023-06-19T08:01:13;34.17;;;7.23;;
34920;SDS011;21128;50.016;20.002;2023-06-19T08:03:41;20.03;;;6.90;;
34920;SDS011;21128;50.016;20.002;2023-06-19T08:06:08;19.13;;;6.83;;
34920;SDS011;21128;50.016;20.002;2023-06-19T08:08:35;18.95;;;6.67;;
34920;SDS011;21128;50.016;20.002;2023-06-19T08:11:02;19.10;;;6.33;;
34920;SDS011;21128;50.016;20.002;2023-06-19T08:13:29;19.47;;;6.63;;
34920;SDS011;21128;50.016;20.002;2023-06-19T08:15:56;14.40;;;6.70;;
34920;SDS011;21128;50.016;20.002;2023-06-19T08:18:23;17.27;;;6.63;;
34920;SDS011;21128;50.016;20.002;2023-06-19T08:20:50;19.90;;;5.90;;
34920;SDS011;21128;50.016;20.002;2023-06-19T08:23:17;10.40;;;5.67;;
34920;SDS011;21128;50.016;20.002;2023-06-19T08:25:44;10.20;;;5.80;;
34920;SDS011;21128;50.016;20.002;2023-06-19T08:28:11;12.00;;;5.70;;
34920;SDS011;21128;50.016;20.002;2023-06-19T08:30:38;11.00;;;6.37;;
34920;SDS011;21128;50.016;20.002;2023-06-19T08:33:05;13.40;;;5.60;;
34920;SDS011;21128;50.016;20.002;2023-06-19T08:35:32;10.27;;;5.63;;
34920;SDS011;21128;50.016;20.002;2023-06-19T08:37:59;9.70;;;6.00;;
34920;SDS011;21128;50.016;20.002;2023-06-19T08:40:26;13.30;;;5.85;;
34920;SDS011;21128;50.016;20.002;2023-06-19T08:42:53;8.90;;;5.10;;
34920;SDS011;21128;50.016;20.002;2023-06-19T08:45:22;8.75;;;5.45;;
34920;SDS011;21128;50.016;20.002;2023-06-19T08:47:49;9.33;;;5.77;;
34920;SDS011;21128;50.016;20.002;2023-06-19T08:50:24;13.10;;;5.43;;
34920;SDS011;21128;50.016;20.002;2023-06-19T08:52:52;8.70;;;5.07;;
34920;SDS011;21128;50.016;20.002;2023-06-19T08:55:19;7.83;;;5.10;;
34920;SDS011;21128;50.016;20.002;2023-06-19T08:57:47;17.87;;;5.67;;
34920;SDS011;21128;50.016;20.002;2023-06-19T09:00:24;20.47;;;5.57;;
34920;SDS011;21128;50.016;20.002;2023-06-19T09:02:58;7.90;;;4.80;;
34920;SDS011;21128;50.016;20.002;2023-06-19T09:05:28;6.27;;;4.53;;
34920;SDS011;21128;50.016;20.002;2023-06-19T09:07:56;6.50;;;4.43;;
34920;SDS011;21128;50.016;20.002;2023-06-19T09:10:27;10.20;;;4.43;;
34920;SDS011;21128;50.016;20.002;2023-06-19T09:15:29;8.50;;;3.90;;
34920;SDS011;21128;50.016;20.002;2023-06-19T09:18:02;6.00;;;3.70;;
34920;SDS011;21128;50.016;20.002;2023-06-19T09:20:32;5.37;;;3.70;;
34920;SDS011;21128;50.016;20.002;2023-06-19T09:23:00;4.73;;;3.90;;
34920;SDS011;21128;50.016;20.002;2023-06-19T09:25:28;6.45;;;3.55;;
34920;SDS011;21128;50.016;20.002;2023-06-19T09:27:55;9.57;;;3.97;;
34920;SDS011;21128;50.016;20.002;2023-06-19T09:30:22;4.33;;;3.80;;
34920;SDS011;21128;50.016;20.002;2023-06-19T09:32:49;6.57;;;4.03;;
34920;SDS011;21128;50.016;20.002;2023-06-19T09:35:17;6.45;;;3.95;;
34920;SDS011;21128;50.016;20.002;2023-06-19T09:37:43;6.63;;;3.87;;
34920;SDS011;21128;50.016;20.002;2023-06-19T09:40:13;4.07;;;3.60;;
34920;SDS011;21128;50.016;20.002;2023-06-19T09:42:43;5.13;;;3.80;;
34920;SDS011;21128;50.016;20.002;2023-06-19T09:45:12;5.50;;;3.63;;
34920;SDS011;21128;50.016;20.002;2023-06-19T09:47:47;4.67;;;3.80;;
34920;SDS011;21128;50.016;20.002;2023-06-19T09:50:18;7.70;;;3.85;;
34920;SDS011;21128;50.016;20.002;2023-06-19T09:52:48;7.10;;;3.37;;
34920;SDS011;21128;50.016;20.002;2023-06-19T09:55:17;4.63;;;4.00;;
34920;SDS011;21128;50.016;20.002;2023-06-19T09:57:46;7.80;;;4.00;;
34920;SDS011;21128;50.016;20.002;2023-06-19T10:00:15;6.50;;;3.23;;
34920;SDS011;21128;50.016;20.002;2023-06-19T10:02:48;6.37;;;3.93;;
34920;SDS011;21128;50.016;20.002;2023-06-19T10:05:16;6.53;;;4.20;;
34920;SDS011;21128;50.016;20.002;2023-06-19T10:07:45;3.80;;;3.50;;
34920;SDS011;21128;50.016;20.002;2023-06-19T10:12:50;4.90;;;3.57;;
34920;SDS011;21128;50.016;20.002;2023-06-19T10:15:18;5.63;;;3.87;;
34920;SDS011;21128;50.016;20.002;2023-06-19T10:23:07;6.13;;;3.70;;
34920;SDS011;21128;50.016;20.002;2023-06-19T10:25:35;5.70;;;3.73;;
34920;SDS011;21128;50.016;20.002;2023-06-19T10:28:04;3.90;;;3.50;;
34920;SDS011;21128;50.016;20.002;2023-06-19T10:33:28;6.93;;;4.10;;
34920;SDS011;21128;50.016;20.002;2023-06-19T10:35:59;4.95;;;3.60;;
34920;SDS011;21128;50.016;20.002;2023-06-19T10:38:28;8.17;;;3.70;;
34920;SDS011;21128;50.016;20.002;2023-06-19T10:40:56;4.97;;;3.73;;
34920;SDS011;21128;50.016;20.002;2023-06-19T10:43:23;7.63;;;3.80;;
34920;SDS011;21128;50.016;20.002;2023-06-19T10:45:51;22.53;;;7.27;;
34920;SDS011;21128;50.016;20.002;2023-06-19T10:48:19;7.80;;;4.15;;
34920;SDS011;21128;50.016;20.002;2023-06-19T10:50:48;3.80;;;3.50;;
34920;SDS011;21128;50.016;20.002;2023-06-19T10:53:23;5.13;;;4.10;;
34920;SDS011;21128;50.016;20.002;2023-06-19T10:56:00;7.93;;;4.00;;
34920;SDS011;21128;50.016;20.002;2023-06-19T10:58:28;5.17;;;4.00;;
34920;SDS011;21128;50.016;20.002;2023-06-19T11:00:55;12.03;;;5.07;;
34920;SDS011;21128;50.016;20.002;2023-06-19T11:03:23;11.05;;;5.20;;
34920;SDS011;21128;50.016;20.002;2023-06-19T11:05:50;8.37;;;5.43;;
34920;SDS011;21128;50.016;20.002;2023-06-19T11:08:18;20.40;;;5.77;;
34920;SDS011;21128;50.016;20.002;2023-06-19T11:10:46;13.03;;;5.37;;
34920;SDS011;21128;50.016;20.002;2023-06-19T11:13:16;9.77;;;5.40;;
34920;SDS011;21128;50.016;20.002;2023-06-19T11:15:45;8.00;;;5.10;;
34920;SDS011;21128;50.016;20.002;2023-06-19T11:18:16;10.90;;;4.77;;
34920;SDS011;21128;50.016;20.002;2023-06-19T11:25:53;8.10;;;4.50;;
34920;SDS011;21128;50.016;20.002;2023-06-19T11:28:20;8.60;;;4.97;;
34920;SDS011;21128;50.016;20.002;2023-06-19T11:30:57;7.85;;;4.50;;
34920;SDS011;21128;50.016;20.002;2023-06-19T11:33:26;8.20;;;4.70;;
34920;SDS011;21128;50.016;20.002;2023-06-19T11:35:53;6.63;;;4.50;;
34920;SDS011;21128;50.016;20.002;2023-06-19T11:38:22;8.50;;;4.43;;
34920;SDS011;21128;50.016;20.002;2023-06-19T11:40:51;8.90;;;4.17;;
34920;SDS011;21128;50.016;20.002;2023-06-19T11:43:26;5.17;;;4.27;;
34920;SDS011;21128;50.016;20.002;2023-06-19T11:46:04;8.40;;;4.47;;
34920;SDS011;21128;50.016;20.002;2023-06-19T11:48:32;7.10;;;4.73;;
34920;SDS011;21128;50.016;20.002;2023-06-19T11:51:03;7.45;;;4.45;;
34920;SDS011;21128;50.016;20.002;2023-06-19T11:53:30;10.10;;;5.10;;
34920;SDS011;21128;50.016;20.002;2023-06-19T11:55:57;10.87;;;4.93;;
34920;SDS011;21128;50.016;20.002;2023-06-19T11:58:24;6.37;;;5.03;;
34920;SDS011;21128;50.016;20.002;2023-06-19T12:00:53;11.30;;;4.50;;
34920;SDS011;21128;50.016;20.002;2023-06-19T12:03:20;14.80;;;5.13;;
34920;SDS011;21128;50.016;20.002;2023-06-19T12:05:47;9.83;;;5.20;;
34920;SDS011;21128;50.016;20.002;2023-06-19T12:08:14;10.53;;;6.13;;
34920;SDS011;21128;50.016;20.002;2023-06-19T12:10:41;21.53;;;6.20;;
34920;SDS011;21128;50.016;20.002;2023-06-19T12:13:08;12.10;;;6.07;;
34920;SDS011;21128;50.016;20.002;2023-06-19T12:15:35;11.00;;;6.53;;
34920;SDS011;21128;50.016;20.002;2023-06-19T12:18:02;9.07;;;5.03;;
34920;SDS011;21128;50.016;20.002;2023-06-19T12:20:30;9.87;;;4.70;;
34920;SDS011;21128;50.016;20.002;2023-06-19T12:22:57;8.73;;;5.07;;
34920;SDS011;21128;50.016;20.002;2023-06-19T12:25:24;10.00;;;4.83;;
34920;SDS011;21128;50.016;20.002;2023-06-19T12:27:50;8.57;;;5.17;;
34920;SDS011;21128;50.016;20.002;2023-06-19T12:30:18;12.67;;;5.07;;
34920;SDS011;21128;50.016;20.002;2023-06-19T12:32:45;8.00;;;4.80;;
34920;SDS011;21128;50.016;20.002;2023-06-19T12:35:16;11.83;;;4.80;;
34920;SDS011;21128;50.016;20.002;2023-06-19T12:37:43;9.68;;;4.58;;
34920;SDS011;21128;50.016;20.002;2023-06-19T12:40:10;6.23;;;4.47;;
34920;SDS011;21128;50.016;20.002;2023-06-19T12:42:37;8.83;;;4.90;;
34920;SDS011;21128;50.016;20.002;2023-06-19T12:45:04;7.77;;;4.80;;
34920;SDS011;21128;50.016;20.002;2023-06-19T12:47:32;8.43;;;4.70;;
34920;SDS011;21128;50.016;20.002;2023-06-19T12:49:58;11.40;;;4.57;;
34920;SDS011;21128;50.016;20.002;2023-06-19T12:52:25;10.07;;;4.40;;
34920;SDS011;21128;50.016;20.002;2023-06-19T12:54:53;6.30;;;4.57;;
34920;SDS011;21128;50.016;20.002;2023-06-19T12:57:20;8.40;;;5.10;;
34920;SDS011;21128;50.016;20.002;2023-06-19T12:59:46;8.47;;;4.93;;
34920;SDS011;21128;50.016;20.002;2023-06-19T13:02:13;8.90;;;4.47;;
34920;SDS011;21128;50.016;20.002;2023-06-19T13:04:40;12.23;;;4.87;;
34920;SDS011;21128;50.016;20.002;2023-06-19T13:07:07;8.03;;;5.23;;
34920;SDS011;21128;50.016;20.002;2023-06-19T13:09:34;8.97;;;4.53;;
34920;SDS011;21128;50.016;20.002;2023-06-19T13:12:03;11.28;;;5.28;;
34920;SDS011;21128;50.016;20.002;2023-06-19T13:14:30;9.37;;;5.37;;
34920;SDS011;21128;50.016;20.002;2023-06-19T13:17:00;8.20;;;5.57;;
34920;SDS011;21128;50.016;20.002;2023-06-19T13:19:28;11.57;;;5.60;;
34920;SDS011;21128;50.016;20.002;2023-06-19T13:21:54;7.40;;;5.60;;
34920;SDS011;21128;50.016;20.002;2023-06-19T13:24:22;7.50;;;5.43;;
34920;SDS011;21128;50.016;20.002;2023-06-19T13:26:49;13.73;;;5.67;;
34920;SDS011;21128;50.016;20.002;2023-06-19T13:29:16;11.43;;;5.90;;
34920;SDS011;21128;50.016;20.002;2023-06-19T13:31:42;8.05;;;5.05;;
34920;SDS011;21128;50.016;20.002;2023-06-19T13:34:09;13.20;;;5.65;;
34920;SDS011;21128;50.016;20.002;2023-06-19T13:36:36;10.70;;;5.70;;
34920;SDS011;21128;50.016;20.002;2023-06-19T13:39:03;9.37;;;5.17;;
34920;SDS011;21128;50.016;20.002;2023-06-19T13:41:31;10.17;;;5.60;;
34920;SDS011;21128;50.016;20.002;2023-06-19T13:43:59;7.40;;;4.90;;
34920;SDS011;21128;50.016;20.002;2023-06-19T13:46:27;12.27;;;5.37;;
34920;SDS011;21128;50.016;20.002;2023-06-19T13:48:54;6.65;;;5.12;;
34920;SDS011;21128;50.016;20.002;2023-06-19T13:51:22;9.70;;;5.57;;
34920;SDS011;21128;50.016;20.002;2023-06-19T13:53:51;14.40;;;5.80;;
34920;SDS011;21128;50.016;20.002;2023-06-19T13:56:18;21.97;;;6.07;;
34920;SDS011;21128;50.016;20.002;2023-06-19T13:58:45;10.23;;;5.87;;
34920;SDS011;21128;50.016;20.002;2023-06-19T14:01:13;8.43;;;5.23;;
34920;SDS011;21128;50.016;20.002;2023-06-19T14:03:40;9.20;;;5.27;;
34920;SDS011;21128;50.016;20.002;2023-06-19T14:06:07;7.20;;;5.17;;
34920;SDS011;21128;50.016;20.002;2023-06-19T14:08:34;11.38;;;5.53;;
34920;SDS011;21128;50.016;20.002;2023-06-19T14:11:01;12.85;;;6.00;;
34920;SDS011;21128;50.016;20.002;2023-06-19T14:13:28;13.93;;;4.97;;
34920;SDS011;21128;50.016;20.002;2023-06-19T14:15:55;13.40;;;5.20;;
34920;SDS011;21128;50.016;20.002;2023-06-19T14:18:23;10.13;;;5.03;;
34920;SDS011;21128;50.016;20.002;2023-06-19T14:20:50;12.73;;;5.17;;
34920;SDS011;21128;50.016;20.002;2023-06-19T14:23:17;11.60;;;5.33;;
34920;SDS011;21128;50.016;20.002;2023-06-19T14:25:44;10.30;;;5.00;;
34920;SDS011;21128;50.016;20.002;2023-06-19T14:28:11;10.20;;;4.83;;
34920;SDS011;21128;50.016;20.002;2023-06-19T14:30:40;14.70;;;5.57;;
34920;SDS011;21128;50.016;20.002;2023-06-19T14:33:07;9.90;;;5.00;;
34920;SDS011;21128;50.016;20.002;2023-06-19T14:35:41;7.23;;;5.20;;
34920;SDS011;21128;50.016;20.002;2023-06-19T14:38:12;6.53;;;4.80;;
34920;SDS011;21128;50.016;20.002;2023-06-19T14:40:43;5.57;;;4.93;;
34920;SDS011;21128;50.016;20.002;2023-06-19T14:43:10;10.90;;;5.47;;
34920;SDS011;21128;50.016;20.002;2023-06-19T14:45:37;10.53;;;4.90;;
34920;SDS011;21128;50.016;20.002;2023-06-19T14:48:06;10.53;;;4.93;;